createdAt,value
2022-10-03T00:00:03.070Z,91.14
2022-10-03T00:02:42.793Z,91.88
2022-10-03T00:05:28.195Z,91.60
2022-10-03T00:08:08.932Z,92.13
2022-10-03T00:10:49.314Z,91.20
2022-10-03T00:13:27.255Z,91.60
2022-10-03T00:16:07.442Z,91.86
2022-10-03T00:18:45.255Z,91.73
2022-10-03T00:21:26.826Z,92.21
2022-10-03T00:24:11.166Z,92.80
2022-10-03T00:26:46.637Z,92.57
2022-10-03T00:29:37.612Z,92.78
2022-10-03T00:32:23.410Z,91.77
2022-10-03T00:35:03.894Z,92.49
2022-10-03T00:37:37.250Z,92.33
2022-10-03T00:40:36.086Z,91.54
2022-10-03T00:43:32.400Z,90.37
2022-10-03T00:46:25.920Z,89.39
2022-10-03T00:49:28.079Z,89.86
2022-10-03T00:52:15.706Z,90.60
2022-10-03T00:54:56.117Z,90.59
2022-10-03T00:57:49.195Z,90.07
2022-10-03T01:00:24.883Z,90.20
2022-10-03T01:03:09.792Z,90.09
2022-10-03T01:05:49.647Z,90.76
2022-10-03T01:08:41.199Z,89.88
2022-10-03T01:11:22.649Z,89.94
2022-10-03T01:14:03.135Z,90.47
2022-10-03T01:16:40.137Z,89.37
2022-10-03T01:19:29.517Z,89.73
2022-10-03T01:22:15.222Z,90.36
2022-10-03T01:24:58.627Z,90.63
2022-10-03T01:28:00.767Z,90.06
2022-10-03T01:30:35.638Z,89.67
2022-10-03T01:33:11.979Z,90.73
2022-10-03T01:35:49.170Z,90.48
2022-10-03T01:38:23.476Z,91.02
2022-10-03T01:41:03.066Z,90.93
2022-10-03T01:43:38.354Z,91.29
2022-10-03T01:46:18.019Z,92.05
2022-10-03T01:48:56.034Z,91.04
2022-10-03T01:51:30.282Z,91.32
2022-10-03T01:54:15.081Z,91.34
2022-10-03T01:56:47.638Z,91.40
2022-10-03T01:59:21.416Z,91.96
2022-10-03T02:01:56.807Z,91.65
2022-10-03T02:04:38.662Z,92.83
2022-10-03T02:07:21.598Z,91.98
2022-10-03T02:09:59.268Z,92.29
2022-10-03T02:12:35.112Z,92.14
2022-10-03T02:15:14.461Z,91.99
2022-10-03T02:17:55.638Z,91.66
2022-10-03T02:20:32.203Z,91.65
2022-10-03T02:23:01.083Z,91.35
2022-10-03T02:25:49.411Z,91.86
2022-10-03T02:28:49.939Z,93.19
2022-10-03T02:32:07.207Z,93.04
2022-10-03T02:35:07.965Z,93.55
2022-10-03T02:38:07.302Z,95.14
2022-10-03T02:40:57.135Z,95.21
2022-10-03T02:44:09.931Z,94.22
2022-10-03T02:47:22.838Z,95.42
2022-10-03T02:50:24.535Z,95.07
2022-10-03T02:53:20.943Z,96.07
2022-10-03T02:56:25.447Z,96.49
2022-10-03T02:59:28.792Z,96.67
2022-10-03T03:02:17.322Z,96.74
2022-10-03T03:05:22.831Z,96.87
2022-10-03T03:08:19.607Z,97.56
2022-10-03T03:11:17.053Z,97.25
2022-10-03T03:14:27.207Z,97.94
2022-10-03T03:17:02.127Z,98.26
2022-10-03T03:19:44.886Z,98.95
2022-10-03T03:22:32.396Z,97.61
2022-10-03T03:25:22.860Z,97.71
2022-10-03T03:28:04.614Z,97.48
2022-10-03T03:30:42.335Z,97.43
2022-10-03T03:33:22.031Z,97.19
2022-10-03T03:35:58.942Z,96.80
2022-10-03T03:38:33.528Z,96.75
2022-10-03T03:41:22.542Z,96.95
2022-10-03T03:44:15.869Z,97.21
2022-10-03T03:47:04.828Z,96.50
2022-10-03T03:49:47.807Z,96.01
2022-10-03T03:52:35.244Z,95.78
2022-10-03T03:55:21.166Z,95.81
2022-10-03T03:58:13.811Z,95.82
2022-10-03T04:01:01.687Z,96.14
2022-10-03T04:03:46.317Z,96.09
2022-10-03T04:06:32.632Z,96.94
2022-10-03T04:09:25.581Z,96.78
2022-10-03T04:12:00.674Z,96.59
2022-10-03T04:14:53.510Z,99.23
2022-10-03T04:17:55.221Z,96.41
2022-10-03T04:20:44.571Z,98.11
2022-10-03T04:23:30.753Z,98.20
2022-10-03T04:26:22.833Z,97.68
2022-10-03T04:29:18.086Z,98.03
2022-10-03T04:31:57.306Z,99.16
2022-10-03T04:34:41.182Z,99.35
2022-10-03T04:37:26.121Z,98.15
2022-10-03T04:40:07.927Z,97.47
2022-10-03T04:42:48.097Z,99.35
2022-10-03T04:45:32.564Z,100.00
2022-10-03T04:48:12.992Z,100.00
2022-10-03T04:50:46.186Z,100.00
2022-10-03T04:53:24.846Z,100.00
2022-10-03T04:55:57.990Z,100.00
2022-10-03T04:58:38.785Z,100.00
2022-10-03T05:01:17.008Z,99.74
2022-10-03T05:03:55.014Z,100.00
2022-10-03T05:06:36.394Z,100.00
2022-10-03T05:09:22.037Z,100.00
2022-10-03T05:11:58.809Z,100.00
2022-10-03T05:14:39.328Z,100.00
2022-10-03T05:17:17.626Z,100.00
2022-10-03T05:20:03.116Z,100.00
2022-10-03T05:22:45.042Z,100.00
2022-10-03T05:25:27.938Z,100.00
2022-10-03T05:28:05.915Z,100.00
2022-10-03T05:30:42.769Z,100.00
2022-10-03T05:33:21.364Z,100.00
2022-10-03T05:36:07.619Z,100.00
2022-10-03T05:39:35.457Z,100.00
2022-10-03T05:42:37.350Z,100.00
2022-10-03T05:45:22.513Z,100.00
2022-10-03T05:47:53.360Z,100.00
2022-10-03T05:50:58.380Z,100.00
2022-10-03T05:53:38.765Z,100.00
2022-10-03T05:56:14.662Z,100.00
2022-10-03T05:59:17.774Z,100.00
2022-10-03T06:02:20.725Z,100.00
2022-10-03T06:05:11.713Z,100.00
2022-10-03T06:07:55.335Z,100.00
2022-10-03T06:10:51.035Z,100.00
2022-10-03T06:13:38.710Z,100.00
2022-10-03T06:16:23.241Z,100.00
2022-10-03T06:19:25.195Z,100.00
2022-10-03T06:22:36.713Z,100.00
2022-10-03T06:25:41.623Z,100.00
2022-10-03T06:28:39.577Z,100.00
2022-10-03T06:31:43.713Z,100.00
2022-10-03T06:34:57.785Z,100.00
2022-10-03T06:38:10.594Z,100.00
2022-10-03T06:41:13.910Z,100.00
2022-10-03T06:43:58.160Z,100.00
2022-10-03T06:46:41.245Z,100.00
2022-10-03T06:50:01.961Z,100.00
2022-10-03T06:53:14.671Z,100.00
2022-10-03T06:56:05.985Z,100.00
2022-10-03T06:59:12.426Z,100.00
2022-10-03T07:02:35.945Z,100.00
2022-10-03T07:05:54.140Z,100.00
2022-10-03T07:09:09.890Z,100.00
2022-10-03T07:11:56.187Z,100.00
2022-10-03T07:14:55.998Z,100.00
2022-10-03T07:17:44.121Z,100.00
2022-10-03T07:20:41.691Z,100.00
2022-10-03T07:23:40.716Z,100.00
2022-10-03T07:26:44.454Z,100.00
2022-10-03T07:29:28.234Z,100.00
2022-10-03T07:32:13.005Z,100.00
2022-10-03T07:35:09.499Z,100.00
2022-10-03T07:38:17.061Z,100.00
2022-10-03T07:41:16.839Z,100.00
2022-10-03T07:44:05.725Z,100.00
2022-10-03T07:47:13.083Z,100.00
2022-10-03T07:49:58.574Z,100.00
2022-10-03T07:52:54.727Z,100.00
2022-10-03T07:55:29.832Z,100.00
2022-10-03T07:58:21.263Z,100.00
2022-10-03T08:01:09.555Z,100.00
2022-10-03T08:04:16.133Z,100.00
2022-10-03T08:06:46.090Z,100.00
2022-10-03T08:09:52.164Z,100.00
2022-10-03T08:12:59.081Z,100.00
2022-10-03T08:15:36.903Z,100.00
2022-10-03T08:18:35.484Z,100.00
2022-10-03T08:21:06.522Z,100.00
2022-10-03T08:23:53.921Z,100.00
2022-10-03T08:26:38.319Z,100.00
2022-10-03T08:29:22.994Z,100.00
2022-10-03T08:32:38.169Z,100.00
2022-10-03T08:35:19.082Z,100.00
2022-10-03T08:38:18.018Z,100.00
2022-10-03T08:41:16.689Z,100.00
2022-10-03T08:44:18.145Z,100.00
2022-10-03T08:47:22.610Z,100.00
2022-10-03T08:50:23.851Z,100.00
2022-10-03T08:53:20.653Z,100.00
2022-10-03T08:55:57.750Z,100.00
2022-10-03T08:59:02.743Z,100.00
2022-10-03T09:01:44.312Z,100.00
2022-10-03T09:04:53.740Z,100.00
2022-10-03T09:07:53.970Z,100.00
2022-10-03T09:10:38.361Z,100.00
2022-10-03T09:13:35.815Z,100.00
2022-10-03T09:16:26.937Z,100.00
2022-10-03T09:19:21.945Z,100.00
2022-10-03T09:22:09.660Z,100.00
2022-10-03T09:25:08.125Z,100.00
2022-10-03T09:27:50.406Z,100.00
2022-10-03T09:30:24.932Z,100.00
2022-10-03T09:33:24.625Z,100.00
2022-10-03T09:36:32.837Z,100.00
2022-10-03T09:39:21.434Z,100.00
2022-10-03T09:42:23.404Z,100.00
2022-10-03T09:45:37.136Z,100.00
2022-10-03T09:48:24.594Z,100.00
2022-10-03T09:51:15.405Z,100.00
2022-10-03T09:54:19.455Z,98.04
2022-10-03T09:57:13.962Z,98.02
2022-10-03T10:00:16.973Z,93.50
2022-10-03T10:03:30.298Z,94.64
2022-10-03T10:06:36.055Z,95.91
2022-10-03T10:09:40.957Z,93.09
2022-10-03T10:12:54.482Z,95.13
2022-10-03T10:15:41.387Z,95.86
2022-10-03T10:18:55.521Z,97.96
2022-10-03T10:21:53.369Z,98.74
2022-10-03T10:24:46.824Z,98.33
2022-10-03T10:28:00.243Z,95.81
2022-10-03T10:30:52.503Z,95.33
2022-10-03T10:34:01.843Z,96.03
2022-10-03T10:37:20.639Z,97.44
2022-10-03T10:40:19.593Z,98.02
2022-10-03T10:43:16.706Z,100.00
2022-10-03T10:45:56.251Z,97.59
2022-10-03T10:49:07.437Z,99.04
2022-10-03T10:51:57.194Z,100.00
2022-10-03T10:54:46.405Z,100.00
2022-10-03T10:57:34.220Z,98.47
2022-10-03T11:00:22.646Z,97.34
2022-10-03T11:03:35.169Z,97.94
2022-10-03T11:06:35.582Z,93.12
2022-10-03T11:09:47.701Z,94.22
2022-10-03T11:12:51.585Z,98.79
2022-10-03T11:15:58.879Z,94.69
2022-10-03T11:19:03.125Z,95.26
2022-10-03T11:22:00.762Z,97.33
2022-10-03T11:25:13.151Z,97.51
2022-10-03T11:28:27.849Z,93.79
2022-10-03T11:31:34.826Z,95.79
2022-10-03T11:34:35.242Z,90.26
2022-10-03T11:37:11.710Z,93.49
2022-10-03T11:39:50.277Z,95.66
2022-10-03T11:42:39.883Z,97.18
2022-10-03T11:45:24.285Z,98.23
2022-10-03T11:47:58.826Z,94.04
2022-10-03T11:50:36.563Z,95.15
2022-10-03T11:53:22.240Z,98.06
2022-10-03T11:56:00.049Z,98.67
2022-10-03T11:58:52.683Z,96.20
2022-10-03T12:01:31.061Z,95.49
2022-10-03T12:04:10.747Z,91.67
2022-10-03T12:07:19.709Z,91.38
2022-10-03T12:09:59.873Z,89.93
2022-10-03T12:12:36.486Z,94.81
2022-10-03T12:15:21.401Z,93.19
2022-10-03T12:18:00.392Z,93.99
2022-10-03T12:20:36.437Z,92.82
2022-10-03T12:23:24.304Z,85.14
2022-10-03T12:25:53.906Z,90.84
2022-10-03T12:28:28.299Z,95.07
2022-10-03T12:31:01.393Z,95.65
2022-10-03T12:33:48.086Z,93.46
2022-10-03T12:36:19.711Z,90.19
2022-10-03T12:39:02.212Z,89.04
2022-10-03T12:41:57.302Z,85.53
2022-10-03T12:44:36.319Z,85.24
2022-10-03T12:47:43.959Z,91.15
2022-10-03T12:50:29.066Z,88.90
2022-10-03T12:53:21.283Z,93.01
2022-10-03T12:56:03.447Z,92.75
2022-10-03T12:58:40.227Z,92.42
2022-10-03T13:01:18.105Z,92.31
2022-10-03T13:03:53.474Z,88.54
2022-10-03T13:07:02.902Z,86.54
2022-10-03T13:09:53.813Z,89.01
2022-10-03T13:12:34.374Z,86.67
2022-10-03T13:15:44.508Z,88.92
2022-10-03T13:18:51.792Z,86.94
2022-10-03T13:21:44.926Z,87.43
2022-10-03T13:24:27.370Z,84.76
2022-10-03T13:27:04.240Z,86.60
2022-10-03T13:29:40.575Z,87.86
2022-10-03T13:32:18.303Z,82.53
2022-10-03T13:35:42.030Z,82.36
2022-10-03T13:38:32.729Z,63.10
2022-10-03T13:41:15.410Z,62.27
2022-10-03T13:43:50.122Z,62.33
2022-10-03T13:46:25.184Z,62.98
2022-10-03T13:49:02.103Z,67.70
2022-10-03T13:51:44.582Z,65.66
2022-10-03T13:54:21.351Z,67.18
2022-10-03T13:56:56.289Z,68.27
2022-10-03T13:59:38.682Z,67.41
2022-10-03T14:02:35.571Z,67.62
2022-10-03T14:05:39.559Z,64.62
2022-10-03T14:08:15.682Z,65.10
2022-10-03T14:11:14.418Z,65.77
2022-10-03T14:14:00.019Z,68.84
2022-10-03T14:16:31.398Z,67.34
2022-10-03T14:19:09.373Z,72.79
2022-10-03T14:21:51.098Z,74.86
2022-10-03T14:24:39.479Z,69.69
2022-10-03T14:27:25.152Z,69.08
2022-10-03T14:30:03.781Z,78.45
2022-10-03T14:32:53.611Z,83.69
2022-10-03T14:35:38.104Z,86.92
2022-10-03T14:39:01.945Z,87.53
2022-10-03T14:41:46.855Z,85.03
2022-10-03T14:44:20.118Z,75.71
2022-10-03T14:46:55.869Z,75.08
2022-10-03T14:52:27.143Z,72.73
2022-10-03T14:54:58.026Z,77.01
2022-10-03T14:57:47.644Z,77.85
2022-10-03T15:00:28.087Z,77.60
2022-10-03T15:02:57.526Z,69.41
2022-10-03T15:05:36.244Z,77.90
2022-10-03T15:08:16.191Z,79.34
2022-10-03T15:10:46.240Z,73.60
2022-10-03T15:13:19.222Z,80.31
2022-10-03T15:15:49.313Z,76.45
2022-10-03T15:18:24.392Z,78.03
2022-10-03T15:20:55.377Z,81.27
2022-10-03T15:23:28.959Z,82.10
2022-10-03T15:25:58.690Z,80.87
2022-10-03T15:28:30.934Z,80.44
2022-10-03T15:31:11.637Z,79.03
2022-10-03T15:33:43.170Z,80.21
2022-10-03T15:36:15.945Z,79.88
2022-10-03T15:38:46.766Z,79.69
2022-10-03T15:41:17.787Z,80.63
2022-10-03T15:43:52.505Z,80.79
2022-10-03T15:46:32.990Z,82.40
2022-10-03T15:49:06.133Z,81.40
2022-10-03T15:51:39.041Z,82.70
2022-10-03T15:54:10.167Z,82.01
2022-10-03T15:56:42.359Z,83.65
2022-10-03T15:59:23.722Z,83.85
2022-10-03T16:01:55.718Z,84.45
2022-10-03T16:04:29.149Z,85.57
2022-10-03T16:07:04.085Z,86.81
2022-10-03T16:09:46.561Z,86.71
2022-10-03T16:12:48.177Z,85.67
2022-10-03T16:15:22.691Z,86.11
2022-10-03T16:17:54.459Z,85.79
2022-10-03T16:20:29.053Z,85.98
2022-10-03T16:22:59.937Z,86.22
2022-10-03T16:25:30.681Z,86.19
2022-10-03T16:28:03.324Z,85.66
2022-10-03T16:30:38.510Z,86.09
2022-10-03T16:33:17.593Z,86.44
2022-10-03T16:35:49.810Z,87.34
2022-10-03T16:38:23.481Z,87.70
2022-10-03T16:40:58.345Z,89.08
2022-10-03T16:43:27.542Z,88.31
2022-10-03T16:45:56.982Z,88.75
2022-10-03T16:48:45.606Z,89.48
2022-10-03T16:51:21.321Z,88.89
2022-10-03T16:53:51.235Z,89.64
2022-10-03T16:56:24.497Z,89.85
2022-10-03T16:58:54.773Z,90.50
2022-10-03T17:01:33.888Z,90.00
2022-10-03T17:04:17.210Z,90.26
2022-10-03T17:06:49.918Z,90.03
2022-10-03T17:09:24.747Z,89.48
2022-10-03T17:11:55.778Z,89.42
2022-10-03T17:14:27.156Z,89.59
2022-10-03T17:17:03.103Z,90.80
2022-10-03T17:19:36.630Z,91.50
2022-10-03T17:22:15.138Z,91.94
2022-10-03T17:24:50.387Z,91.55
2022-10-03T17:27:25.973Z,91.43
2022-10-03T17:29:59.893Z,90.40
2022-10-03T17:32:30.108Z,89.72
2022-10-03T17:35:05.630Z,90.22
2022-10-03T17:38:44.437Z,90.72
2022-10-03T17:41:17.262Z,90.25
2022-10-03T17:43:50.899Z,90.31
2022-10-03T17:46:24.628Z,90.75
2022-10-03T17:49:02.567Z,89.40
2022-10-03T17:51:36.654Z,90.53
2022-10-03T17:54:15.956Z,90.30
2022-10-03T17:56:49.432Z,89.40
2022-10-03T17:59:24.268Z,89.81
2022-10-03T18:01:54.827Z,89.32
2022-10-03T18:04:34.731Z,89.74
2022-10-03T18:07:10.432Z,91.59
2022-10-03T18:09:45.720Z,91.01
2022-10-03T18:12:22.687Z,91.16
2022-10-03T18:15:43.648Z,91.55
2022-10-03T18:18:57.440Z,91.45
2022-10-03T18:21:40.192Z,90.35
2022-10-03T18:24:20.938Z,89.43
2022-10-03T18:27:03.830Z,90.59
2022-10-03T18:29:36.869Z,90.15
2022-10-03T18:32:14.503Z,90.08
2022-10-03T18:34:48.312Z,90.70
2022-10-03T18:37:52.325Z,90.55
2022-10-03T18:40:26.702Z,89.47
2022-10-03T18:42:56.907Z,89.95
2022-10-03T18:45:30.859Z,89.57
2022-10-03T18:48:01.158Z,90.35
2022-10-03T18:50:33.534Z,90.18
2022-10-03T18:53:18.623Z,88.92
2022-10-03T18:55:51.089Z,88.28
2022-10-03T18:58:25.290Z,88.38
2022-10-03T19:01:00.126Z,88.65
2022-10-03T19:03:36.033Z,89.11
2022-10-03T19:06:08.290Z,88.92
2022-10-03T19:08:41.518Z,88.98
2022-10-03T19:11:15.874Z,88.80
2022-10-03T19:13:53.142Z,89.58
2022-10-03T19:16:36.129Z,89.38
2022-10-03T19:19:08.948Z,89.58
2022-10-03T19:21:40.075Z,90.77
2022-10-03T19:24:14.509Z,90.38
2022-10-03T19:26:47.491Z,91.07
2022-10-03T19:29:22.847Z,90.90
2022-10-03T19:32:01.669Z,90.29
2022-10-03T19:34:37.052Z,90.80
2022-10-03T19:37:09.070Z,92.54
2022-10-03T19:39:39.765Z,94.41
2022-10-03T19:42:23.259Z,93.60
2022-10-03T19:44:57.086Z,92.18
2022-10-03T19:47:31.381Z,92.00
2022-10-03T19:50:08.662Z,93.02
2022-10-03T19:52:41.663Z,92.92
2022-10-03T19:55:15.954Z,93.04
2022-10-03T19:57:48.891Z,92.77
2022-10-03T20:00:28.156Z,94.38
2022-10-03T20:03:05.513Z,93.89
2022-10-03T20:05:41.944Z,93.67
2022-10-03T20:08:22.990Z,94.36
2022-10-03T20:11:07.465Z,93.96
2022-10-03T20:13:35.434Z,93.45
2022-10-03T20:16:06.036Z,93.32
2022-10-03T20:18:35.657Z,93.84
2022-10-03T20:21:10.105Z,93.74
2022-10-03T20:23:42.130Z,93.61
2022-10-03T20:26:26.290Z,92.95
2022-10-03T20:29:15.763Z,93.60
2022-10-03T20:31:45.906Z,92.61
2022-10-03T20:34:19.767Z,92.38
2022-10-03T20:36:51.392Z,92.73
2022-10-03T20:39:24.398Z,93.10
2022-10-03T20:42:01.624Z,93.27
2022-10-03T20:44:49.233Z,94.19
2022-10-03T20:47:32.191Z,94.94
2022-10-03T20:50:03.648Z,94.99
2022-10-03T20:52:33.610Z,95.58
2022-10-03T20:55:06.324Z,95.06
2022-10-03T20:57:43.771Z,95.89
2022-10-03T21:00:21.992Z,96.93
2022-10-03T21:02:57.972Z,97.79
2022-10-03T21:05:29.885Z,96.59
2022-10-03T21:08:00.476Z,96.69
2022-10-03T21:10:32.394Z,97.73
2022-10-03T21:13:03.350Z,97.23
2022-10-03T21:15:39.293Z,97.84
2022-10-03T21:18:18.011Z,97.66
2022-10-03T21:20:47.433Z,97.89
2022-10-03T21:23:21.403Z,96.05
2022-10-03T21:25:52.196Z,97.29
2022-10-03T21:28:25.307Z,97.18
2022-10-03T21:31:13.333Z,97.90
2022-10-03T21:33:49.643Z,96.93
2022-10-03T21:36:25.144Z,96.66
2022-10-03T21:38:53.278Z,97.13
2022-10-03T21:41:28.099Z,97.98
2022-10-03T21:43:59.657Z,96.81
2022-10-03T21:46:36.102Z,97.43
2022-10-03T21:49:31.812Z,98.04
2022-10-03T21:52:25.368Z,98.46
2022-10-03T21:55:51.186Z,98.37
2022-10-03T21:58:58.190Z,98.88
2022-10-03T22:01:34.025Z,98.70
2022-10-03T22:04:07.298Z,98.13
2022-10-03T22:06:44.349Z,98.74
2022-10-03T22:09:14.752Z,97.59
2022-10-03T22:11:50.044Z,98.62
2022-10-03T22:14:28.862Z,98.86
2022-10-03T22:17:05.537Z,100.00
2022-10-03T22:19:38.485Z,100.00
2022-10-03T22:22:17.363Z,99.66
2022-10-03T22:24:56.759Z,99.10
2022-10-03T22:27:32.297Z,98.89
2022-10-03T22:30:06.360Z,99.63
2022-10-03T22:32:37.167Z,99.42
2022-10-03T22:35:18.372Z,99.16
2022-10-03T22:37:47.831Z,97.84
2022-10-03T22:40:15.911Z,98.63
2022-10-03T22:42:48.467Z,98.12
2022-10-03T22:45:17.715Z,98.35
2022-10-03T22:47:51.897Z,97.66
2022-10-03T22:50:25.587Z,97.85
2022-10-03T22:52:56.137Z,97.50
2022-10-03T22:55:27.176Z,98.78
2022-10-03T22:57:57.198Z,98.71
2022-10-03T23:00:27.359Z,98.54
2022-10-03T23:03:00.339Z,96.98
2022-10-03T23:05:48.270Z,97.72
2022-10-03T23:08:27.792Z,97.44
2022-10-03T23:10:58.162Z,97.93
2022-10-03T23:13:36.408Z,99.75
2022-10-03T23:16:15.825Z,98.81
2022-10-03T23:18:55.253Z,98.95
2022-10-03T23:21:23.321Z,99.76
2022-10-03T23:24:01.817Z,98.98
2022-10-03T23:26:56.429Z,98.63
2022-10-03T23:29:24.508Z,98.66
2022-10-03T23:32:02.694Z,99.20
2022-10-03T23:34:47.937Z,99.09
2022-10-03T23:37:41.545Z,99.29
2022-10-03T23:40:39.803Z,98.58
2022-10-03T23:43:26.474Z,98.11
2022-10-03T23:45:57.216Z,99.15
2022-10-03T23:48:27.354Z,99.57
2022-10-03T23:50:59.875Z,100.00
2022-10-03T23:53:32.765Z,99.48
2022-10-03T23:56:03.956Z,99.42
2022-10-03T23:58:34.136Z,100.00
